createdAt,value
2023-01-29T00:05:27.686Z,0.6
2023-01-29T00:10:45.218Z,0.6
2023-01-29T00:16:16.508Z,0.6
2023-01-29T00:21:46.535Z,0.6
2023-01-29T00:27:18.496Z,0.6
2023-01-29T00:32:52.619Z,0.5
2023-01-29T00:38:46.745Z,0.4
2023-01-29T00:44:03.699Z,0.3
2023-01-29T00:49:40.035Z,0.4
2023-01-29T00:55:04.524Z,0.5
2023-01-29T01:00:45.017Z,0.6
2023-01-29T01:06:25.368Z,0.7
2023-01-29T01:11:49.377Z,0.6
2023-01-29T01:17:22.275Z,0.6
2023-01-29T01:23:00.762Z,0.6
2023-01-29T01:28:42.875Z,0.6
2023-01-29T01:34:14.776Z,0.5
2023-01-29T01:39:40.118Z,0.6
2023-01-29T01:45:16.349Z,0.5
2023-01-29T01:50:38.415Z,0.6
2023-01-29T01:56:21.745Z,0.6
2023-01-29T02:01:47.217Z,0.5
2023-01-29T02:07:35.328Z,0.6
2023-01-29T02:13:06.943Z,0.6
2023-01-29T02:18:32.610Z,0.6
2023-01-29T02:24:22.391Z,0.6
2023-01-29T02:29:53.263Z,0.6
2023-01-29T02:35:13.237Z,0.6
2023-01-29T02:40:58.133Z,0.7
2023-01-29T02:46:35.013Z,0.6
2023-01-29T02:52:06.507Z,0.6
2023-01-29T02:57:45.757Z,0.5
2023-01-29T03:03:04.239Z,0.5
2023-01-29T03:08:31.860Z,0.4
2023-01-29T03:14:14.259Z,0.4
2023-01-29T03:19:43.880Z,0.3
2023-01-29T03:25:13.714Z,0.5
2023-01-29T03:31:01.165Z,0.4
2023-01-29T03:36:29.255Z,0.4
2023-01-29T03:42:15.927Z,0.4
2023-01-29T03:47:32.481Z,0.4
2023-01-29T03:53:19.131Z,0.3
2023-01-29T03:59:01.455Z,0.4
2023-01-29T04:04:27.146Z,0.4
2023-01-29T04:09:50.631Z,0.3
2023-01-29T04:15:22.272Z,0.3
2023-01-29T04:20:52.670Z,0.3
2023-01-29T04:26:46.254Z,0.3
2023-01-29T04:32:20.100Z,0.3
2023-01-29T04:37:58.654Z,0.3
2023-01-29T04:43:05.241Z,0.3
2023-01-29T04:48:43.172Z,0.3
2023-01-29T04:54:13.629Z,0.3
2023-01-29T04:59:58.766Z,0.3
2023-01-29T05:05:27.162Z,0.3
2023-01-29T05:10:57.924Z,0.2
2023-01-29T05:16:34.702Z,0.3
2023-01-29T05:22:17.458Z,0.2
2023-01-29T05:27:46.001Z,0.3
2023-01-29T05:33:32.537Z,0.2
2023-01-29T05:38:50.713Z,0.2
2023-01-29T05:44:28.525Z,0.1
2023-01-29T05:50:18.329Z,0.2
2023-01-29T05:55:49.211Z,0.2
2023-01-29T06:01:04.066Z,0.2
2023-01-29T06:06:31.512Z,0.1
2023-01-29T06:12:17.483Z,0.1
2023-01-29T06:18:01.377Z,0.2
2023-01-29T06:23:29.457Z,0.2
2023-01-29T06:28:58.222Z,0.1
2023-01-29T06:34:19.678Z,0.2
2023-01-29T06:39:55.339Z,0.2
2023-01-29T06:45:32.957Z,0.2
2023-01-29T06:51:23.808Z,0.2
2023-01-29T06:56:35.344Z,0.2
2023-01-29T07:02:14.857Z,0.1
2023-01-29T07:07:58.752Z,0.1
2023-01-29T07:13:43.601Z,0.1
2023-01-29T07:18:50.285Z,0.1
2023-01-29T07:24:37.668Z,0.2
2023-01-29T07:30:24.279Z,0.2
2023-01-29T07:35:52.830Z,0.1
2023-01-29T07:41:06.412Z,0.2
2023-01-29T07:46:41.246Z,0.2
2023-01-29T07:52:29.709Z,0.1
2023-01-29T07:57:47.169Z,0.2
2023-01-29T08:03:19.148Z,0.2
2023-01-29T08:08:53.889Z,0.2
2023-01-29T08:14:34.432Z,0.2
2023-01-29T08:20:14.717Z,0.2
2023-01-29T08:25:51.791Z,0.3
2023-01-29T08:31:32.354Z,0.3
2023-01-29T08:36:53.439Z,0.3
2023-01-29T08:42:15.114Z,0.4
2023-01-29T08:48:08.509Z,0.4
2023-01-29T08:53:39.444Z,0.4
2023-01-29T08:59:05.409Z,0.4
2023-01-29T09:04:36.395Z,0.4
2023-01-29T09:10:22.807Z,0.4
2023-01-29T09:15:57.976Z,0.5
2023-01-29T09:21:29.824Z,0.5
2023-01-29T09:27:00.409Z,0.6
2023-01-29T09:37:56.594Z,0.6
2023-01-29T09:43:52.212Z,0.6
2023-01-29T09:49:02.180Z,0.8
2023-01-29T09:54:48.722Z,0.9
2023-01-29T10:00:29.567Z,0.9
2023-01-29T10:05:39.651Z,1.1
2023-01-29T10:11:30.034Z,1
2023-01-29T10:16:50.454Z,1
2023-01-29T10:22:26.264Z,0.9
2023-01-29T10:28:16.439Z,1.1
2023-01-29T10:34:01.845Z,1.3
2023-01-29T10:39:29.899Z,1
2023-01-29T10:44:50.955Z,1.1
2023-01-29T10:50:27.185Z,1.1
2023-01-29T10:56:17.520Z,1.2
2023-01-29T11:01:44.003Z,1.4
2023-01-29T11:06:51.837Z,1.2
2023-01-29T11:12:37.758Z,1.1
2023-01-29T11:18:04.753Z,1.2
2023-01-29T11:23:33.520Z,1.1
2023-01-29T11:29:11.123Z,1
2023-01-29T11:34:56.285Z,1.3
2023-01-29T11:40:24.307Z,1.2
2023-01-29T11:46:05.781Z,1.2
2023-01-29T11:51:29.989Z,1.2
2023-01-29T11:57:20.195Z,1.2
2023-01-29T12:02:48.205Z,1.1
2023-01-29T12:08:19.850Z,1.1
2023-01-29T12:13:45.998Z,1.2
2023-01-29T12:19:32.576Z,1
2023-01-29T12:24:50.887Z,1.2
2023-01-29T12:30:36.099Z,1.2
2023-01-29T12:36:02.067Z,1.1
2023-01-29T12:41:46.619Z,1.4
2023-01-29T12:47:17.143Z,1.2
2023-01-29T12:52:31.415Z,1.2
2023-01-29T12:58:20.036Z,1.5
2023-01-29T13:04:02.806Z,1.3
2023-01-29T13:09:35.420Z,1.6
2023-01-29T13:15:07.055Z,1.6
2023-01-29T13:20:36.465Z,1.6
2023-01-29T13:26:10.070Z,1.6
2023-01-29T13:31:41.986Z,1.4
2023-01-29T13:37:08.536Z,1.5
2023-01-29T13:42:54.667Z,1.3
2023-01-29T13:48:22.985Z,1.5
2023-01-29T13:53:41.895Z,1.7
2023-01-29T13:59:35.219Z,1.2
2023-01-29T14:04:56.919Z,1.5
2023-01-29T14:10:21.573Z,1.6
2023-01-29T14:16:12.514Z,1.7
2023-01-29T14:21:36.807Z,1.5
2023-01-29T14:27:06.402Z,1.5
2023-01-29T14:32:54.776Z,1.6
2023-01-29T14:38:06.082Z,1.8
2023-01-29T14:43:42.504Z,2
2023-01-29T14:49:31.662Z,1.7
2023-01-29T14:54:52.096Z,1.4
2023-01-29T15:00:43.664Z,1.4
2023-01-29T15:06:01.142Z,1.6
2023-01-29T15:11:33.426Z,1.5
2023-01-29T15:17:18.080Z,1.3
2023-01-29T15:22:47.241Z,1.3
2023-01-29T15:28:12.131Z,1.4
2023-01-29T15:33:52.329Z,1.2
2023-01-29T15:39:32.925Z,1.4
2023-01-29T15:44:52.798Z,1.2
2023-01-29T15:50:41.055Z,1.2
2023-01-29T15:56:10.323Z,1.2
2023-01-29T16:01:27.761Z,1.2
2023-01-29T16:06:59.577Z,1
2023-01-29T16:12:33.220Z,1
2023-01-29T16:18:10.210Z,0.9
2023-01-29T16:23:39.307Z,0.8
2023-01-29T16:29:25.193Z,0.7
2023-01-29T16:35:04.090Z,0.5
2023-01-29T16:40:39.461Z,0.4
2023-01-29T16:46:13.708Z,0.2
2023-01-29T16:51:30.593Z,0.1
2023-01-29T16:57:06.391Z,0
2023-01-29T17:02:43.184Z,-0.1
2023-01-29T17:08:05.008Z,-0.1
2023-01-29T17:13:45.200Z,-0.3
2023-01-29T17:19:07.951Z,-0.4
2023-01-29T17:24:48.554Z,-0.5
2023-01-29T17:30:27.337Z,-0.7
2023-01-29T17:35:51.552Z,-0.6
2023-01-29T17:41:25.369Z,-0.6
2023-01-29T17:47:04.814Z,-0.4
2023-01-29T17:52:27.803Z,-0.3
2023-01-29T17:58:12.888Z,-0.4
2023-01-29T18:03:45.824Z,-1.2
2023-01-29T18:08:58.492Z,-1.2
2023-01-29T18:14:44.053Z,-0.8
2023-01-29T18:20:07.097Z,-0.4
2023-01-29T18:26:03.667Z,-0.2
2023-01-29T18:31:13.112Z,0
2023-01-29T18:36:45.073Z,-0.1
2023-01-29T18:42:43.014Z,0
2023-01-29T18:48:16.271Z,0
2023-01-29T18:53:24.591Z,0
2023-01-29T18:59:10.893Z,-0.1
2023-01-29T19:04:51.633Z,-0.1
2023-01-29T19:10:22.178Z,-0.2
2023-01-29T19:15:51.794Z,-0.2
2023-01-29T19:21:18.651Z,-0.2
2023-01-29T19:27:03.010Z,-0.1
2023-01-29T19:32:25.003Z,-0.2
2023-01-29T19:37:45.384Z,-0.3
2023-01-29T19:43:32.336Z,-0.3
2023-01-29T19:48:50.173Z,-0.4
2023-01-29T19:54:42.824Z,-0.5
2023-01-29T19:59:54.302Z,-0.6
2023-01-29T20:05:46.871Z,-0.7
2023-01-29T20:11:19.957Z,-0.9
2023-01-29T20:16:57.884Z,-0.9
2023-01-29T20:22:31.984Z,-1.1
2023-01-29T20:27:51.460Z,-1.2
2023-01-29T20:33:15.114Z,-1.4
2023-01-29T20:38:47.819Z,-1.1
2023-01-29T20:44:25.308Z,-1.1
2023-01-29T20:49:59.315Z,-1.4
2023-01-29T20:55:29.581Z,-1.5
2023-01-29T21:01:08.345Z,-1.6
2023-01-29T21:06:36.640Z,-1.8
2023-01-29T21:12:18.051Z,-1.7
2023-01-29T21:17:45.656Z,-1.7
2023-01-29T21:23:13.190Z,-1.9
2023-01-29T21:28:42.900Z,-2.2
2023-01-29T21:34:26.586Z,-2
2023-01-29T21:40:08.520Z,-1.9
2023-01-29T21:45:21.238Z,-1.9
2023-01-29T21:51:08.628Z,-1.8
2023-01-29T21:56:30.180Z,-2
2023-01-29T22:01:56.728Z,-2.1
2023-01-29T22:07:40.071Z,-2.3
2023-01-29T22:13:22.755Z,-2.1
2023-01-29T22:18:43.205Z,-2
2023-01-29T22:24:15.128Z,-2.3
2023-01-29T22:29:44.857Z,-2.2
2023-01-29T22:35:31.133Z,-2.5
2023-01-29T22:41:01.604Z,-2.4
2023-01-29T22:46:29.800Z,-2
2023-01-29T22:51:45.104Z,-2.2
2023-01-29T22:57:29.828Z,-2
2023-01-29T23:03:12.636Z,-2
2023-01-29T23:08:48.017Z,-1.9
2023-01-29T23:14:22.251Z,-1.8
2023-01-29T23:19:42.663Z,-1.9
2023-01-29T23:25:04.044Z,-1.9
2023-01-29T23:30:55.505Z,-2
2023-01-29T23:36:15.194Z,-2.1
2023-01-29T23:42:00.167Z,-1.9
2023-01-29T23:47:32.035Z,-1.9
2023-01-29T23:53:11.408Z,-1.9
2023-01-29T23:58:30.689Z,-2
